Terminal Aerodrome Forecast
Issued by NWS Tulsa, OK

Home | Current Version | Previous Version | Text Only | Print | Product List | Glossary On
Versions: 1 2 3 4 5 6 7 8 9 10 11 12 13 14 15
000
FTUS44 KTSA 171945 AAA
TAFFSM
TAF AMD
KFSM 171945Z 1720/1818 27009KT P6SM BKN010
     FM172100 30008KT P6SM SCT030
     FM180000 VRB02KT P6SM SKC
     FM180900 07004KT P6SM SCT010
     FM181600 09005KT P6SM BKN020=

USA.gov is the U.S. government's official web portal to all federal, state and local government web resources and services.